KEAN/EAN METAR and TAF weather

Enter ICAO airport designator
Station Type Date Time Source
KEAN METAR 2022/06/26 08:10 UTC NOAA

KEAN 260810Z AUTO 00000KT 10SM BKN070 BKN095 BKN110 11/06 A3050 RMK AO2 T01120061


Station Type Date Time Source
KEAN Decoded METAR 2022/06/26 08:10 UTC NOAA

Station name not available
Jun 26, 2022 - 04:10 AM EDT / 2022.06.26 0810 UTC
Wind: Calm:0
Visibility: 10 mile(s):0
Sky conditions: mostly cloudy
Temperature: 52.2 F (11.2 C)
Dew Point: 43.0 F (6.1 C)
Relative Humidity: 70%
Pressure (altimeter): 30.5 in. Hg (1032 hPa)
ob: KEAN 260810Z AUTO 00000KT 10SM BKN070 BKN095 BKN110 11/06 A3050 RMK AO2 T01120061
cycle: 8

Station Type Date Time Source
KEAN TAF UTC NOAA

Error!

Example: see airport list